sensor_id;sensor_type;location;lat;lon;timestamp;temperature;humidity
7598;DHT22;3840;59.32098800;18.06423600;2023-04-24T00:00:24;6.70;99.90
7598;DHT22;3840;59.32098800;18.06423600;2023-04-24T00:02:51;6.70;99.90
7598;DHT22;3840;59.32098800;18.06423600;2023-04-24T00:05:17;6.60;99.90
7598;DHT22;3840;59.32098800;18.06423600;2023-04-24T00:07:45;6.60;99.90
7598;DHT22;3840;59.32098800;18.06423600;2023-04-24T00:10:11;6.60;99.90
7598;DHT22;3840;59.32098800;18.06423600;2023-04-24T00:12:38;6.50;99.90
7598;DHT22;3840;59.32098800;18.06423600;2023-04-24T00:15:04;6.50;99.90
7598;DHT22;3840;59.32098800;18.06423600;2023-04-24T00:17:30;6.50;99.90
7598;DHT22;3840;59.32098800;18.06423600;2023-04-24T00:19:56;6.40;99.90
7598;DHT22;3840;59.32098800;18.06423600;2023-04-24T00:22:28;6.40;99.90
7598;DHT22;3840;59.32098800;18.06423600;2023-04-24T00:24:55;6.40;99.90
7598;DHT22;3840;59.32098800;18.06423600;2023-04-24T00:27:21;6.40;99.90
7598;DHT22;3840;59.32098800;18.06423600;2023-04-24T00:29:46;6.30;99.90
7598;DHT22;3840;59.32098800;18.06423600;2023-04-24T00:32:13;6.30;99.90
7598;DHT22;3840;59.32098800;18.06423600;2023-04-24T00:34:40;6.30;99.90
7598;DHT22;3840;59.32098800;18.06423600;2023-04-24T00:37:06;6.30;99.90
7598;DHT22;3840;59.32098800;18.06423600;2023-04-24T00:39:32;6.40;99.90
7598;DHT22;3840;59.32098800;18.06423600;2023-04-24T00:41:58;6.40;99.90
7598;DHT22;3840;59.32098800;18.06423600;2023-04-24T00:44:24;6.40;99.90
7598;DHT22;3840;59.32098800;18.06423600;2023-04-24T00:46:50;6.40;99.90
7598;DHT22;3840;59.32098800;18.06423600;2023-04-24T00:49:20;6.40;99.90
7598;DHT22;3840;59.32098800;18.06423600;2023-04-24T00:51:46;6.40;99.90
7598;DHT22;3840;59.32098800;18.06423600;2023-04-24T00:54:15;6.30;99.90
7598;DHT22;3840;59.32098800;18.06423600;2023-04-24T00:56:42;6.30;99.90
7598;DHT22;3840;59.32098800;18.06423600;2023-04-24T00:59:08;6.30;99.90
7598;DHT22;3840;59.32098800;18.06423600;2023-04-24T01:01:35;6.30;99.90
7598;DHT22;3840;59.32098800;18.06423600;2023-04-24T01:04:01;6.30;99.90
7598;DHT22;3840;59.32098800;18.06423600;2023-04-24T01:06:29;6.30;99.90
7598;DHT22;3840;59.32098800;18.06423600;2023-04-24T01:08:57;6.30;99.90
7598;DHT22;3840;59.32098800;18.06423600;2023-04-24T01:11:24;6.40;99.90
7598;DHT22;3840;59.32098800;18.06423600;2023-04-24T01:13:52;6.40;99.90
7598;DHT22;3840;59.32098800;18.06423600;2023-04-24T01:16:18;6.30;99.90
7598;DHT22;3840;59.32098800;18.06423600;2023-04-24T01:18:46;6.30;99.90
7598;DHT22;3840;59.32098800;18.06423600;2023-04-24T01:21:14;6.20;99.90
7598;DHT22;3840;59.32098800;18.06423600;2023-04-24T01:23:45;6.20;99.90
7598;DHT22;3840;59.32098800;18.06423600;2023-04-24T01:26:12;6.30;99.90
7598;DHT22;3840;59.32098800;18.06423600;2023-04-24T01:28:38;6.30;99.90
7598;DHT22;3840;59.32098800;18.06423600;2023-04-24T01:31:06;6.30;99.90
7598;DHT22;3840;59.32098800;18.06423600;2023-04-24T01:33:32;6.30;99.90
7598;DHT22;3840;59.32098800;18.06423600;2023-04-24T01:35:59;6.30;99.90
7598;DHT22;3840;59.32098800;18.06423600;2023-04-24T01:38:26;6.30;99.90
7598;DHT22;3840;59.32098800;18.06423600;2023-04-24T01:40:52;6.30;99.90
7598;DHT22;3840;59.32098800;18.06423600;2023-04-24T01:43:18;6.20;99.90
7598;DHT22;3840;59.32098800;18.06423600;2023-04-24T01:45:44;6.20;99.90
7598;DHT22;3840;59.32098800;18.06423600;2023-04-24T01:48:12;6.10;99.90
7598;DHT22;3840;59.32098800;18.06423600;2023-04-24T01:50:38;6.20;99.90
7598;DHT22;3840;59.32098800;18.06423600;2023-04-24T01:53:04;6.20;99.90
7598;DHT22;3840;59.32098800;18.06423600;2023-04-24T01:55:30;6.10;99.90
7598;DHT22;3840;59.32098800;18.06423600;2023-04-24T01:57:56;6.10;99.90
7598;DHT22;3840;59.32098800;18.06423600;2023-04-24T02:00:23;6.10;99.90
7598;DHT22;3840;59.32098800;18.06423600;2023-04-24T02:02:50;6.10;99.90
7598;DHT22;3840;59.32098800;18.06423600;2023-04-24T02:05:15;6.10;99.90
7598;DHT22;3840;59.32098800;18.06423600;2023-04-24T02:07:41;6.10;99.90
7598;DHT22;3840;59.32098800;18.06423600;2023-04-24T02:10:07;6.20;99.90
7598;DHT22;3840;59.32098800;18.06423600;2023-04-24T02:12:33;6.20;99.90
7598;DHT22;3840;59.32098800;18.06423600;2023-04-24T02:14:59;6.20;99.90
7598;DHT22;3840;59.32098800;18.06423600;2023-04-24T02:17:25;6.20;99.90
7598;DHT22;3840;59.32098800;18.06423600;2023-04-24T02:19:50;6.20;99.90
7598;DHT22;3840;59.32098800;18.06423600;2023-04-24T02:22:16;6.20;99.90
7598;DHT22;3840;59.32098800;18.06423600;2023-04-24T02:24:42;6.30;99.90
7598;DHT22;3840;59.32098800;18.06423600;2023-04-24T02:27:07;6.20;99.90
7598;DHT22;3840;59.32098800;18.06423600;2023-04-24T02:29:33;6.00;99.90
7598;DHT22;3840;59.32098800;18.06423600;2023-04-24T02:31:59;5.90;99.90
7598;DHT22;3840;59.32098800;18.06423600;2023-04-24T02:34:25;5.80;99.90
7598;DHT22;3840;59.32098800;18.06423600;2023-04-24T02:36:51;5.70;99.90
7598;DHT22;3840;59.32098800;18.06423600;2023-04-24T02:39:19;5.60;99.90
7598;DHT22;3840;59.32098800;18.06423600;2023-04-24T02:41:45;5.60;99.90
7598;DHT22;3840;59.32098800;18.06423600;2023-04-24T02:44:10;5.50;99.90
7598;DHT22;3840;59.32098800;18.06423600;2023-04-24T02:46:36;5.40;99.90
7598;DHT22;3840;59.32098800;18.06423600;2023-04-24T02:49:02;5.30;99.90
7598;DHT22;3840;59.32098800;18.06423600;2023-04-24T02:51:28;5.30;99.90
7598;DHT22;3840;59.32098800;18.06423600;2023-04-24T02:53:54;5.20;99.90
7598;DHT22;3840;59.32098800;18.06423600;2023-04-24T02:56:20;5.20;99.90
7598;DHT22;3840;59.32098800;18.06423600;2023-04-24T02:58:48;5.30;99.90
7598;DHT22;3840;59.32098800;18.06423600;2023-04-24T03:01:13;5.40;99.90
7598;DHT22;3840;59.32098800;18.06423600;2023-04-24T03:03:40;5.30;99.90
7598;DHT22;3840;59.32098800;18.06423600;2023-04-24T03:06:06;5.20;99.90
7598;DHT22;3840;59.32098800;18.06423600;2023-04-24T03:08:36;5.10;99.90
7598;DHT22;3840;59.32098800;18.06423600;2023-04-24T03:11:02;5.10;99.90
7598;DHT22;3840;59.32098800;18.06423600;2023-04-24T03:13:28;5.10;99.90
7598;DHT22;3840;59.32098800;18.06423600;2023-04-24T03:15:53;5.10;99.90
7598;DHT22;3840;59.32098800;18.06423600;2023-04-24T03:18:19;5.10;99.90
7598;DHT22;3840;59.32098800;18.06423600;2023-04-24T03:20:48;5.10;99.90
7598;DHT22;3840;59.32098800;18.06423600;2023-04-24T03:23:14;5.20;99.90
7598;DHT22;3840;59.32098800;18.06423600;2023-04-24T03:25:40;5.20;99.90
7598;DHT22;3840;59.32098800;18.06423600;2023-04-24T03:28:08;5.10;99.90
7598;DHT22;3840;59.32098800;18.06423600;2023-04-24T03:30:34;5.10;99.90
7598;DHT22;3840;59.32098800;18.06423600;2023-04-24T03:33:01;5.20;99.90
7598;DHT22;3840;59.32098800;18.06423600;2023-04-24T03:35:27;5.10;99.90
7598;DHT22;3840;59.32098800;18.06423600;2023-04-24T03:37:52;5.10;99.90
7598;DHT22;3840;59.32098800;18.06423600;2023-04-24T03:40:18;5.00;99.90
7598;DHT22;3840;59.32098800;18.06423600;2023-04-24T03:42:44;5.10;99.90
7598;DHT22;3840;59.32098800;18.06423600;2023-04-24T03:45:10;5.10;99.90
7598;DHT22;3840;59.32098800;18.06423600;2023-04-24T03:47:35;5.20;99.90
7598;DHT22;3840;59.32098800;18.06423600;2023-04-24T03:50:01;5.10;99.90
7598;DHT22;3840;59.32098800;18.06423600;2023-04-24T03:52:27;5.10;99.90
7598;DHT22;3840;59.32098800;18.06423600;2023-04-24T03:54:54;5.00;99.90
7598;DHT22;3840;59.32098800;18.06423600;2023-04-24T03:57:20;4.90;99.90
7598;DHT22;3840;59.32098800;18.06423600;2023-04-24T03:59:46;5.10;99.90
7598;DHT22;3840;59.32098800;18.06423600;2023-04-24T04:02:12;5.10;99.90
7598;DHT22;3840;59.32098800;18.06423600;2023-04-24T04:04:38;5.00;99.90
7598;DHT22;3840;59.32098800;18.06423600;2023-04-24T04:07:07;5.00;99.90
7598;DHT22;3840;59.32098800;18.06423600;2023-04-24T04:09:33;5.10;99.90
7598;DHT22;3840;59.32098800;18.06423600;2023-04-24T04:12:01;5.00;99.90
7598;DHT22;3840;59.32098800;18.06423600;2023-04-24T04:14:27;5.00;99.90
7598;DHT22;3840;59.32098800;18.06423600;2023-04-24T04:16:53;5.00;99.90
7598;DHT22;3840;59.32098800;18.06423600;2023-04-24T04:19:19;5.10;99.90
7598;DHT22;3840;59.32098800;18.06423600;2023-04-24T04:21:44;5.10;99.90
7598;DHT22;3840;59.32098800;18.06423600;2023-04-24T04:24:11;5.20;99.90
7598;DHT22;3840;59.32098800;18.06423600;2023-04-24T04:26:38;5.20;99.90
7598;DHT22;3840;59.32098800;18.06423600;2023-04-24T04:29:04;5.10;99.90
7598;DHT22;3840;59.32098800;18.06423600;2023-04-24T04:31:30;5.20;99.90
7598;DHT22;3840;59.32098800;18.06423600;2023-04-24T04:33:56;5.20;99.90
7598;DHT22;3840;59.32098800;18.06423600;2023-04-24T04:36:21;5.30;99.90
7598;DHT22;3840;59.32098800;18.06423600;2023-04-24T04:38:50;5.40;99.90
7598;DHT22;3840;59.32098800;18.06423600;2023-04-24T04:41:15;5.40;99.90
7598;DHT22;3840;59.32098800;18.06423600;2023-04-24T04:43:43;5.30;99.90
7598;DHT22;3840;59.32098800;18.06423600;2023-04-24T04:46:09;5.10;99.90
7598;DHT22;3840;59.32098800;18.06423600;2023-04-24T04:48:36;5.10;99.90
7598;DHT22;3840;59.32098800;18.06423600;2023-04-24T04:51:02;5.20;99.90
7598;DHT22;3840;59.32098800;18.06423600;2023-04-24T04:53:28;5.20;99.90
7598;DHT22;3840;59.32098800;18.06423600;2023-04-24T04:55:54;5.30;99.90
7598;DHT22;3840;59.32098800;18.06423600;2023-04-24T04:58:20;5.30;99.90
7598;DHT22;3840;59.32098800;18.06423600;2023-04-24T05:00:47;5.20;99.90
7598;DHT22;3840;59.32098800;18.06423600;2023-04-24T05:03:14;5.20;99.90
7598;DHT22;3840;59.32098800;18.06423600;2023-04-24T05:05:41;5.20;99.90
7598;DHT22;3840;59.32098800;18.06423600;2023-04-24T05:08:07;5.20;99.90
7598;DHT22;3840;59.32098800;18.06423600;2023-04-24T05:10:33;5.30;99.90
7598;DHT22;3840;59.32098800;18.06423600;2023-04-24T05:12:59;5.20;99.90
7598;DHT22;3840;59.32098800;18.06423600;2023-04-24T05:15:25;5.00;99.90
7598;DHT22;3840;59.32098800;18.06423600;2023-04-24T05:17:51;5.00;99.90
7598;DHT22;3840;59.32098800;18.06423600;2023-04-24T05:20:17;5.10;99.90
7598;DHT22;3840;59.32098800;18.06423600;2023-04-24T05:22:43;5.20;99.90
7598;DHT22;3840;59.32098800;18.06423600;2023-04-24T05:25:08;5.20;99.90
7598;DHT22;3840;59.32098800;18.06423600;2023-04-24T05:27:36;5.10;99.90
7598;DHT22;3840;59.32098800;18.06423600;2023-04-24T05:30:01;5.00;99.90
7598;DHT22;3840;59.32098800;18.06423600;2023-04-24T05:32:27;4.90;99.90
7598;DHT22;3840;59.32098800;18.06423600;2023-04-24T05:34:53;4.90;99.90
7598;DHT22;3840;59.32098800;18.06423600;2023-04-24T05:37:18;5.00;99.90
7598;DHT22;3840;59.32098800;18.06423600;2023-04-24T05:39:44;4.90;99.90
7598;DHT22;3840;59.32098800;18.06423600;2023-04-24T05:42:10;4.90;99.90
7598;DHT22;3840;59.32098800;18.06423600;2023-04-24T05:44:36;4.90;99.90
7598;DHT22;3840;59.32098800;18.06423600;2023-04-24T05:47:01;4.90;99.90
7598;DHT22;3840;59.32098800;18.06423600;2023-04-24T05:49:29;4.80;99.90
7598;DHT22;3840;59.32098800;18.06423600;2023-04-24T05:51:55;4.90;99.90
7598;DHT22;3840;59.32098800;18.06423600;2023-04-24T05:54:21;4.90;99.90
7598;DHT22;3840;59.32098800;18.06423600;2023-04-24T05:56:49;4.90;99.90
7598;DHT22;3840;59.32098800;18.06423600;2023-04-24T05:59:15;4.90;99.90
7598;DHT22;3840;59.32098800;18.06423600;2023-04-24T06:01:41;4.80;99.90
7598;DHT22;3840;59.32098800;18.06423600;2023-04-24T06:04:07;4.80;99.90
7598;DHT22;3840;59.32098800;18.06423600;2023-04-24T06:06:33;4.80;99.90
7598;DHT22;3840;59.32098800;18.06423600;2023-04-24T06:09:00;4.80;99.90
7598;DHT22;3840;59.32098800;18.06423600;2023-04-24T06:11:26;4.90;99.90
7598;DHT22;3840;59.32098800;18.06423600;2023-04-24T06:13:51;4.90;99.90
7598;DHT22;3840;59.32098800;18.06423600;2023-04-24T06:16:17;4.80;99.90
7598;DHT22;3840;59.32098800;18.06423600;2023-04-24T06:18:44;4.80;99.90
7598;DHT22;3840;59.32098800;18.06423600;2023-04-24T06:21:12;4.90;99.90
7598;DHT22;3840;59.32098800;18.06423600;2023-04-24T06:23:39;4.80;99.90
7598;DHT22;3840;59.32098800;18.06423600;2023-04-24T06:26:05;4.80;99.90
7598;DHT22;3840;59.32098800;18.06423600;2023-04-24T06:28:30;4.70;99.90
7598;DHT22;3840;59.32098800;18.06423600;2023-04-24T06:30:56;4.80;99.90
7598;DHT22;3840;59.32098800;18.06423600;2023-04-24T06:33:22;4.70;99.90
7598;DHT22;3840;59.32098800;18.06423600;2023-04-24T06:35:47;4.60;99.90
7598;DHT22;3840;59.32098800;18.06423600;2023-04-24T06:38:14;4.70;99.90
7598;DHT22;3840;59.32098800;18.06423600;2023-04-24T06:40:41;4.70;99.90
7598;DHT22;3840;59.32098800;18.06423600;2023-04-24T06:43:07;4.90;99.90
7598;DHT22;3840;59.32098800;18.06423600;2023-04-24T06:45:32;4.70;99.90
7598;DHT22;3840;59.32098800;18.06423600;2023-04-24T06:48:01;4.60;99.90
7598;DHT22;3840;59.32098800;18.06423600;2023-04-24T06:50:28;4.60;99.90
7598;DHT22;3840;59.32098800;18.06423600;2023-04-24T06:52:54;4.70;99.90
7598;DHT22;3840;59.32098800;18.06423600;2023-04-24T06:55:20;4.80;99.90
7598;DHT22;3840;59.32098800;18.06423600;2023-04-24T06:57:45;4.70;99.90
7598;DHT22;3840;59.32098800;18.06423600;2023-04-24T07:00:13;4.80;99.90
7598;DHT22;3840;59.32098800;18.06423600;2023-04-24T07:02:39;4.90;99.90
7598;DHT22;3840;59.32098800;18.06423600;2023-04-24T07:05:06;4.50;99.90
7598;DHT22;3840;59.32098800;18.06423600;2023-04-24T07:07:33;4.80;99.90
7598;DHT22;3840;59.32098800;18.06423600;2023-04-24T07:10:00;4.90;99.90
7598;DHT22;3840;59.32098800;18.06423600;2023-04-24T07:12:26;4.90;99.90
7598;DHT22;3840;59.32098800;18.06423600;2023-04-24T07:14:53;5.00;99.90
7598;DHT22;3840;59.32098800;18.06423600;2023-04-24T07:17:19;5.00;99.90
7598;DHT22;3840;59.32098800;18.06423600;2023-04-24T07:19:45;5.00;99.90
7598;DHT22;3840;59.32098800;18.06423600;2023-04-24T07:22:11;5.10;99.90
7598;DHT22;3840;59.32098800;18.06423600;2023-04-24T07:24:43;5.10;99.90
7598;DHT22;3840;59.32098800;18.06423600;2023-04-24T07:27:09;5.20;99.90
7598;DHT22;3840;59.32098800;18.06423600;2023-04-24T07:29:34;5.20;99.90
7598;DHT22;3840;59.32098800;18.06423600;2023-04-24T07:32:01;5.20;99.90
7598;DHT22;3840;59.32098800;18.06423600;2023-04-24T07:34:26;5.30;99.90
7598;DHT22;3840;59.32098800;18.06423600;2023-04-24T07:36:52;5.40;99.90
7598;DHT22;3840;59.32098800;18.06423600;2023-04-24T07:39:18;5.50;99.90
7598;DHT22;3840;59.32098800;18.06423600;2023-04-24T07:41:44;5.50;99.90
7598;DHT22;3840;59.32098800;18.06423600;2023-04-24T07:44:10;5.40;99.90
7598;DHT22;3840;59.32098800;18.06423600;2023-04-24T07:46:36;5.40;99.90
7598;DHT22;3840;59.32098800;18.06423600;2023-04-24T07:49:02;5.50;99.90
7598;DHT22;3840;59.32098800;18.06423600;2023-04-24T07:51:28;5.40;99.90
7598;DHT22;3840;59.32098800;18.06423600;2023-04-24T07:53:54;5.40;99.90
7598;DHT22;3840;59.32098800;18.06423600;2023-04-24T07:56:23;5.40;99.90
7598;DHT22;3840;59.32098800;18.06423600;2023-04-24T07:58:48;5.50;99.90
7598;DHT22;3840;59.32098800;18.06423600;2023-04-24T08:01:14;5.50;99.90
7598;DHT22;3840;59.32098800;18.06423600;2023-04-24T08:03:40;5.60;99.90
7598;DHT22;3840;59.32098800;18.06423600;2023-04-24T08:06:06;5.60;99.90
7598;DHT22;3840;59.32098800;18.06423600;2023-04-24T08:08:31;5.60;99.90
7598;DHT22;3840;59.32098800;18.06423600;2023-04-24T08:10:57;5.70;99.90
7598;DHT22;3840;59.32098800;18.06423600;2023-04-24T08:13:23;5.70;99.90
7598;DHT22;3840;59.32098800;18.06423600;2023-04-24T08:15:49;5.80;99.90
7598;DHT22;3840;59.32098800;18.06423600;2023-04-24T08:18:15;5.80;99.90
7598;DHT22;3840;59.32098800;18.06423600;2023-04-24T08:20:41;5.90;99.90
7598;DHT22;3840;59.32098800;18.06423600;2023-04-24T08:23:07;5.90;99.90
7598;DHT22;3840;59.32098800;18.06423600;2023-04-24T08:25:33;5.80;99.90
7598;DHT22;3840;59.32098800;18.06423600;2023-04-24T08:28:01;5.90;99.90
7598;DHT22;3840;59.32098800;18.06423600;2023-04-24T08:30:28;5.90;99.90
7598;DHT22;3840;59.32098800;18.06423600;2023-04-24T08:32:53;5.80;99.90
7598;DHT22;3840;59.32098800;18.06423600;2023-04-24T08:35:19;5.80;99.90
7598;DHT22;3840;59.32098800;18.06423600;2023-04-24T08:37:45;5.80;99.90
7598;DHT22;3840;59.32098800;18.06423600;2023-04-24T08:40:15;5.70;99.90
7598;DHT22;3840;59.32098800;18.06423600;2023-04-24T08:42:43;5.70;99.90
7598;DHT22;3840;59.32098800;18.06423600;2023-04-24T08:45:10;5.80;99.90
7598;DHT22;3840;59.32098800;18.06423600;2023-04-24T08:47:38;5.90;99.90
7598;DHT22;3840;59.32098800;18.06423600;2023-04-24T08:50:07;6.10;99.90
7598;DHT22;3840;59.32098800;18.06423600;2023-04-24T08:52:35;6.10;99.90
7598;DHT22;3840;59.32098800;18.06423600;2023-04-24T08:55:01;6.00;99.90
7598;DHT22;3840;59.32098800;18.06423600;2023-04-24T08:57:28;6.10;99.90
7598;DHT22;3840;59.32098800;18.06423600;2023-04-24T08:59:55;6.10;99.90
7598;DHT22;3840;59.32098800;18.06423600;2023-04-24T09:02:21;6.00;99.90
7598;DHT22;3840;59.32098800;18.06423600;2023-04-24T09:04:48;6.10;99.90
7598;DHT22;3840;59.32098800;18.06423600;2023-04-24T09:07:16;6.10;99.90
7598;DHT22;3840;59.32098800;18.06423600;2023-04-24T09:09:44;6.10;99.90
7598;DHT22;3840;59.32098800;18.06423600;2023-04-24T09:12:11;6.10;99.90
7598;DHT22;3840;59.32098800;18.06423600;2023-04-24T09:14:37;6.20;99.90
7598;DHT22;3840;59.32098800;18.06423600;2023-04-24T09:17:10;6.20;99.90
7598;DHT22;3840;59.32098800;18.06423600;2023-04-24T09:19:36;6.10;99.90
7598;DHT22;3840;59.32098800;18.06423600;2023-04-24T09:22:06;6.00;99.90
7598;DHT22;3840;59.32098800;18.06423600;2023-04-24T09:24:33;6.00;99.90
7598;DHT22;3840;59.32098800;18.06423600;2023-04-24T09:26:59;6.10;99.90
7598;DHT22;3840;59.32098800;18.06423600;2023-04-24T09:29:27;6.10;99.90
7598;DHT22;3840;59.32098800;18.06423600;2023-04-24T09:31:53;6.20;99.90
7598;DHT22;3840;59.32098800;18.06423600;2023-04-24T09:34:23;6.20;99.90
7598;DHT22;3840;59.32098800;18.06423600;2023-04-24T09:36:50;6.10;99.90
7598;DHT22;3840;59.32098800;18.06423600;2023-04-24T09:39:16;6.00;99.90
7598;DHT22;3840;59.32098800;18.06423600;2023-04-24T09:44:14;6.00;99.90
7598;DHT22;3840;59.32098800;18.06423600;2023-04-24T09:46:43;5.80;99.90
7598;DHT22;3840;59.32098800;18.06423600;2023-04-24T09:49:13;5.80;99.90
7598;DHT22;3840;59.32098800;18.06423600;2023-04-24T09:51:41;5.90;99.90
7598;DHT22;3840;59.32098800;18.06423600;2023-04-24T09:54:18;6.10;99.90
7598;DHT22;3840;59.32098800;18.06423600;2023-04-24T09:56:48;6.10;99.90
7598;DHT22;3840;59.32098800;18.06423600;2023-04-24T09:59:15;6.20;99.90
7598;DHT22;3840;59.32098800;18.06423600;2023-04-24T10:01:41;6.10;99.90
7598;DHT22;3840;59.32098800;18.06423600;2023-04-24T10:04:17;6.30;99.90
7598;DHT22;3840;59.32098800;18.06423600;2023-04-24T10:06:44;6.30;99.90
7598;DHT22;3840;59.32098800;18.06423600;2023-04-24T10:09:11;6.30;99.90
7598;DHT22;3840;59.32098800;18.06423600;2023-04-24T10:11:42;6.20;99.90
7598;DHT22;3840;59.32098800;18.06423600;2023-04-24T10:14:10;6.30;99.90
7598;DHT22;3840;59.32098800;18.06423600;2023-04-24T10:16:41;6.40;99.90
7598;DHT22;3840;59.32098800;18.06423600;2023-04-24T10:19:08;6.40;99.90
7598;DHT22;3840;59.32098800;18.06423600;2023-04-24T10:21:35;6.50;99.90
7598;DHT22;3840;59.32098800;18.06423600;2023-04-24T10:24:08;6.80;99.90
7598;DHT22;3840;59.32098800;18.06423600;2023-04-24T10:26:34;6.80;99.90
7598;DHT22;3840;59.32098800;18.06423600;2023-04-24T10:29:01;6.60;99.90
7598;DHT22;3840;59.32098800;18.06423600;2023-04-24T10:31:31;6.50;99.90
7598;DHT22;3840;59.32098800;18.06423600;2023-04-24T10:34:00;6.50;99.90
7598;DHT22;3840;59.32098800;18.06423600;2023-04-24T10:36:27;6.40;99.90
7598;DHT22;3840;59.32098800;18.06423600;2023-04-24T10:38:56;6.50;99.90
7598;DHT22;3840;59.32098800;18.06423600;2023-04-24T10:41:25;6.50;99.90
7598;DHT22;3840;59.32098800;18.06423600;2023-04-24T10:44:08;6.40;99.90
7598;DHT22;3840;59.32098800;18.06423600;2023-04-24T10:46:35;6.40;99.90
7598;DHT22;3840;59.32098800;18.06423600;2023-04-24T10:49:08;6.30;99.90
7598;DHT22;3840;59.32098800;18.06423600;2023-04-24T10:51:50;6.50;99.90
7598;DHT22;3840;59.32098800;18.06423600;2023-04-24T10:54:29;6.60;99.90
7598;DHT22;3840;59.32098800;18.06423600;2023-04-24T10:59:52;6.50;99.90
7598;DHT22;3840;59.32098800;18.06423600;2023-04-24T11:02:39;6.60;99.90
7598;DHT22;3840;59.32098800;18.06423600;2023-04-24T11:05:06;6.60;99.90
7598;DHT22;3840;59.32098800;18.06423600;2023-04-24T11:10:39;6.40;99.90
7598;DHT22;3840;59.32098800;18.06423600;2023-04-24T11:13:04;6.40;99.90
7598;DHT22;3840;59.32098800;18.06423600;2023-04-24T11:15:30;6.40;99.90
7598;DHT22;3840;59.32098800;18.06423600;2023-04-24T11:17:56;6.30;99.90
7598;DHT22;3840;59.32098800;18.06423600;2023-04-24T11:20:23;6.10;99.90
7598;DHT22;3840;59.32098800;18.06423600;2023-04-24T11:22:53;6.20;99.90
7598;DHT22;3840;59.32098800;18.06423600;2023-04-24T11:25:21;6.30;99.90
7598;DHT22;3840;59.32098800;18.06423600;2023-04-24T11:27:49;6.20;99.90
7598;DHT22;3840;59.32098800;18.06423600;2023-04-24T11:30:19;6.20;99.90
7598;DHT22;3840;59.32098800;18.06423600;2023-04-24T11:32:50;6.10;99.90
7598;DHT22;3840;59.32098800;18.06423600;2023-04-24T11:35:21;6.20;99.90
7598;DHT22;3840;59.32098800;18.06423600;2023-04-24T11:37:52;6.30;99.90
7598;DHT22;3840;59.32098800;18.06423600;2023-04-24T11:40:19;6.30;99.90
7598;DHT22;3840;59.32098800;18.06423600;2023-04-24T11:42:50;6.30;99.90
7598;DHT22;3840;59.32098800;18.06423600;2023-04-24T11:45:23;6.40;99.90
7598;DHT22;3840;59.32098800;18.06423600;2023-04-24T11:47:48;6.40;99.90
7598;DHT22;3840;59.32098800;18.06423600;2023-04-24T11:50:17;6.30;99.90
7598;DHT22;3840;59.32098800;18.06423600;2023-04-24T11:52:46;6.20;99.90
7598;DHT22;3840;59.32098800;18.06423600;2023-04-24T12:00:16;6.40;99.90
7598;DHT22;3840;59.32098800;18.06423600;2023-04-24T12:02:42;6.50;99.90
7598;DHT22;3840;59.32098800;18.06423600;2023-04-24T12:05:08;6.50;99.90
7598;DHT22;3840;59.32098800;18.06423600;2023-04-24T12:07:43;6.60;99.90
7598;DHT22;3840;59.32098800;18.06423600;2023-04-24T12:10:09;6.50;99.90
7598;DHT22;3840;59.32098800;18.06423600;2023-04-24T12:12:35;6.50;99.90
7598;DHT22;3840;59.32098800;18.06423600;2023-04-24T12:15:01;7.00;99.90
7598;DHT22;3840;59.32098800;18.06423600;2023-04-24T12:17:31;6.50;99.90
7598;DHT22;3840;59.32098800;18.06423600;2023-04-24T12:20:02;6.50;99.90
7598;DHT22;3840;59.32098800;18.06423600;2023-04-24T12:22:51;6.60;99.90
7598;DHT22;3840;59.32098800;18.06423600;2023-04-24T12:25:22;6.60;99.90
7598;DHT22;3840;59.32098800;18.06423600;2023-04-24T12:30:33;6.40;99.90
7598;DHT22;3840;59.32098800;18.06423600;2023-04-24T12:32:59;6.60;99.90
7598;DHT22;3840;59.32098800;18.06423600;2023-04-24T12:35:30;6.50;99.90
7598;DHT22;3840;59.32098800;18.06423600;2023-04-24T12:38:11;6.50;99.90
7598;DHT22;3840;59.32098800;18.06423600;2023-04-24T12:40:39;6.50;99.90
7598;DHT22;3840;59.32098800;18.06423600;2023-04-24T12:43:20;6.60;99.90
7598;DHT22;3840;59.32098800;18.06423600;2023-04-24T12:45:48;6.60;99.90
7598;DHT22;3840;59.32098800;18.06423600;2023-04-24T12:48:14;6.70;99.90
7598;DHT22;3840;59.32098800;18.06423600;2023-04-24T12:50:40;6.70;99.90
7598;DHT22;3840;59.32098800;18.06423600;2023-04-24T12:53:07;6.60;99.90
7598;DHT22;3840;59.32098800;18.06423600;2023-04-24T12:55:34;6.60;99.90
7598;DHT22;3840;59.32098800;18.06423600;2023-04-24T12:57:59;6.60;99.90
7598;DHT22;3840;59.32098800;18.06423600;2023-04-24T13:00:26;6.60;99.90
7598;DHT22;3840;59.32098800;18.06423600;2023-04-24T13:02:51;6.50;99.90
7598;DHT22;3840;59.32098800;18.06423600;2023-04-24T13:05:17;6.40;99.90
7598;DHT22;3840;59.32098800;18.06423600;2023-04-24T13:07:43;6.50;99.90
7598;DHT22;3840;59.32098800;18.06423600;2023-04-24T13:10:09;6.30;99.90
7598;DHT22;3840;59.32098800;18.06423600;2023-04-24T13:12:35;6.20;99.90
7598;DHT22;3840;59.32098800;18.06423600;2023-04-24T13:15:01;6.10;99.90
7598;DHT22;3840;59.32098800;18.06423600;2023-04-24T13:17:27;6.10;99.90
7598;DHT22;3840;59.32098800;18.06423600;2023-04-24T13:19:54;6.10;99.90
7598;DHT22;3840;59.32098800;18.06423600;2023-04-24T13:22:20;6.20;99.90
7598;DHT22;3840;59.32098800;18.06423600;2023-04-24T13:24:46;6.20;99.90
7598;DHT22;3840;59.32098800;18.06423600;2023-04-24T13:27:14;6.10;99.90
7598;DHT22;3840;59.32098800;18.06423600;2023-04-24T13:29:40;6.10;99.90
7598;DHT22;3840;59.32098800;18.06423600;2023-04-24T13:32:06;6.10;99.90
7598;DHT22;3840;59.32098800;18.06423600;2023-04-24T13:34:32;6.10;99.90
7598;DHT22;3840;59.32098800;18.06423600;2023-04-24T13:36:58;6.10;99.90
7598;DHT22;3840;59.32098800;18.06423600;2023-04-24T13:39:24;6.10;99.90
7598;DHT22;3840;59.32098800;18.06423600;2023-04-24T13:41:50;6.00;99.90
7598;DHT22;3840;59.32098800;18.06423600;2023-04-24T13:44:17;6.00;99.90
7598;DHT22;3840;59.32098800;18.06423600;2023-04-24T13:46:44;5.90;99.90
7598;DHT22;3840;59.32098800;18.06423600;2023-04-24T13:49:12;5.80;99.90
7598;DHT22;3840;59.32098800;18.06423600;2023-04-24T13:51:38;5.80;99.90
7598;DHT22;3840;59.32098800;18.06423600;2023-04-24T13:54:04;5.90;99.90
7598;DHT22;3840;59.32098800;18.06423600;2023-04-24T13:56:30;5.80;99.90
7598;DHT22;3840;59.32098800;18.06423600;2023-04-24T13:58:56;5.90;99.90
7598;DHT22;3840;59.32098800;18.06423600;2023-04-24T14:01:22;5.90;99.90